createdAt,value
2023-05-18T00:01:26.450Z,103036.34
2023-05-18T00:03:54.885Z,103042.63
2023-05-18T00:06:22.604Z,103039.94
2023-05-18T00:08:49.430Z,103051.03
2023-05-18T00:11:17.230Z,103046.09
2023-05-18T00:13:44.293Z,103050.69
2023-05-18T00:16:13.704Z,103055.16
2023-05-18T00:18:40.890Z,103056.84
2023-05-18T00:21:08.950Z,103054.34
2023-05-18T00:23:35.956Z,103066.78
2023-05-18T00:26:04.216Z,103058.78
2023-05-18T00:28:31.055Z,103061.63
2023-05-18T00:30:57.844Z,103061.66
2023-05-18T00:33:24.633Z,103068.72
2023-05-18T00:35:51.379Z,103067.19
2023-05-18T00:38:18.388Z,103070.94
2023-05-18T00:40:45.113Z,103057.56
2023-05-18T00:43:11.879Z,103066.47
2023-05-18T00:45:38.906Z,103063.81
2023-05-18T00:48:06.195Z,103072.81
2023-05-18T00:50:33.238Z,103071.78
2023-05-18T00:53:00.538Z,103072.75
2023-05-18T00:55:28.537Z,103081.91
2023-05-18T00:57:56.951Z,103077.28
2023-05-18T01:00:24.149Z,103077.03
2023-05-18T01:02:54.848Z,103078.72
2023-05-18T01:05:22.339Z,103069.91
2023-05-18T01:07:51.993Z,103068.16
2023-05-18T01:10:20.737Z,103070.75
2023-05-18T01:13:12.897Z,103074.31
2023-05-18T01:15:41.881Z,103082.41
2023-05-18T01:18:27.729Z,103082.50
2023-05-18T01:21:19.711Z,103073.63
2023-05-18T01:24:03.869Z,103069.94
2023-05-18T01:26:37.537Z,103078.94
2023-05-18T01:29:09.258Z,103077.19
2023-05-18T01:31:36.223Z,103081.66
2023-05-18T01:34:03.073Z,103083.63
2023-05-18T01:36:29.797Z,103086.22
2023-05-18T01:39:01.353Z,103082.53
2023-05-18T01:41:30.305Z,103078.00
2023-05-18T01:44:36.311Z,103072.69
2023-05-18T01:47:12.234Z,103082.63
2023-05-18T01:49:47.328Z,103082.56
2023-05-18T01:52:39.871Z,103086.94
2023-05-18T01:55:08.419Z,103084.97
2023-05-18T01:57:36.656Z,103083.09
2023-05-18T02:00:07.932Z,103081.25
2023-05-18T02:02:35.172Z,103085.91
2023-05-18T02:05:02.576Z,103084.84
2023-05-18T02:07:29.240Z,103086.56
2023-05-18T02:09:56.105Z,103088.50
2023-05-18T02:12:22.830Z,103085.03
2023-05-18T02:14:49.549Z,103085.06
2023-05-18T02:17:16.230Z,103085.84
2023-05-18T02:19:43.234Z,103085.75
2023-05-18T02:22:10.071Z,103086.59
2023-05-18T02:24:36.749Z,103088.41
2023-05-18T02:27:05.226Z,103084.97
2023-05-18T02:29:33.120Z,103089.34
2023-05-18T02:31:59.884Z,103090.38
2023-05-18T02:34:27.654Z,103084.16
2023-05-18T02:36:57.812Z,103091.19
2023-05-18T02:39:24.825Z,103081.28
2023-05-18T02:41:51.533Z,103086.66
2023-05-18T02:44:18.596Z,103088.31
2023-05-18T02:46:45.540Z,103087.47
2023-05-18T02:49:17.624Z,103083.94
2023-05-18T02:51:44.303Z,103090.13
2023-05-18T02:54:12.443Z,103086.44
2023-05-18T02:56:41.693Z,103082.16
2023-05-18T02:59:09.021Z,103077.72
2023-05-18T03:01:37.881Z,103083.88
2023-05-18T03:04:04.786Z,103084.66
2023-05-18T03:06:31.532Z,103084.84
2023-05-18T03:08:58.883Z,103086.41
2023-05-18T03:11:26.404Z,103075.50
2023-05-18T03:13:53.159Z,103078.16
2023-05-18T03:16:20.145Z,103066.59
2023-05-18T03:18:46.906Z,103071.09
2023-05-18T03:21:16.687Z,103069.22
2023-05-18T03:23:43.441Z,103064.56
2023-05-18T03:26:11.820Z,103077.03
2023-05-18T03:28:58.633Z,103074.22
2023-05-18T03:31:25.975Z,103069.69
2023-05-18T03:33:52.744Z,103078.56
2023-05-18T03:36:24.913Z,103064.91
2023-05-18T03:38:51.614Z,103069.44
2023-05-18T03:41:18.552Z,103067.59
2023-05-18T03:43:45.496Z,103061.22
2023-05-18T03:46:12.353Z,103066.44
2023-05-18T03:48:39.051Z,103073.53
2023-05-18T03:51:06.611Z,103072.31
2023-05-18T03:53:33.889Z,103077.91
2023-05-18T03:56:00.909Z,103084.34
2023-05-18T03:58:27.688Z,103088.56
2023-05-18T04:00:54.505Z,103089.66
2023-05-18T04:03:21.718Z,103087.59
2023-05-18T04:05:49.749Z,103080.38
2023-05-18T04:08:19.975Z,103090.19
2023-05-18T04:10:46.899Z,103095.41
2023-05-18T04:13:13.635Z,103097.97
2023-05-18T04:15:40.463Z,103089.75
2023-05-18T04:18:08.389Z,103092.47
2023-05-18T04:20:35.309Z,103092.19
2023-05-18T04:23:05.159Z,103092.19
2023-05-18T04:25:32.070Z,103099.19
2023-05-18T04:27:59.031Z,103099.25
2023-05-18T04:30:27.388Z,103091.66
2023-05-18T04:32:58.262Z,103095.22
2023-05-18T04:35:26.098Z,103095.91
2023-05-18T04:37:54.590Z,103102.28
2023-05-18T04:40:21.489Z,103107.63
2023-05-18T04:42:48.918Z,103103.72
2023-05-18T04:45:17.847Z,103101.25
2023-05-18T04:47:53.464Z,103105.44
2023-05-18T04:50:23.893Z,103101.19
2023-05-18T04:52:52.143Z,103105.19
2023-05-18T04:55:26.023Z,103104.47
2023-05-18T04:57:56.909Z,103095.78
2023-05-18T05:00:26.080Z,103097.50
2023-05-18T05:02:53.876Z,103100.78
2023-05-18T05:05:21.565Z,103103.25
2023-05-18T05:07:53.365Z,103094.06
2023-05-18T05:10:21.186Z,103101.25
2023-05-18T05:12:49.972Z,103103.78
2023-05-18T05:15:20.154Z,103113.09
2023-05-18T05:17:48.251Z,103105.81
2023-05-18T05:20:16.185Z,103114.31
2023-05-18T05:22:42.937Z,103118.09
2023-05-18T05:25:10.044Z,103122.22
2023-05-18T05:27:37.010Z,103130.03
2023-05-18T05:30:04.894Z,103130.72
2023-05-18T05:32:31.777Z,103129.44
2023-05-18T05:34:58.572Z,103132.69
2023-05-18T05:37:25.389Z,103134.22
2023-05-18T05:39:52.172Z,103145.63
2023-05-18T05:42:18.848Z,103139.53
2023-05-18T05:44:45.589Z,103141.72
2023-05-18T05:47:12.490Z,103143.44
2023-05-18T05:49:39.432Z,103143.44
2023-05-18T05:52:06.475Z,103141.38
2023-05-18T05:54:33.333Z,103143.94
2023-05-18T05:57:00.220Z,103150.66
2023-05-18T05:59:27.228Z,103149.16
2023-05-18T06:01:53.965Z,103138.81
2023-05-18T06:04:20.864Z,103140.34
2023-05-18T06:06:48.008Z,103134.41
2023-05-18T06:09:15.995Z,103137.38
2023-05-18T06:11:43.187Z,103142.22
2023-05-18T06:14:10.068Z,103130.16
2023-05-18T06:16:36.838Z,103125.88
2023-05-18T06:19:03.790Z,103126.47
2023-05-18T06:21:31.905Z,103134.31
2023-05-18T06:23:58.698Z,103133.84
2023-05-18T06:26:26.007Z,103132.28
2023-05-18T06:28:52.729Z,103125.47
2023-05-18T06:31:19.512Z,103129.31
2023-05-18T06:33:46.241Z,103127.25
2023-05-18T06:36:18.183Z,103116.56
2023-05-18T06:38:44.889Z,103117.91
2023-05-18T06:41:11.594Z,103116.69
2023-05-18T06:43:38.322Z,103125.19
2023-05-18T06:46:05.158Z,103121.47
2023-05-18T06:48:32.007Z,103126.19
2023-05-18T06:50:58.780Z,103127.56
2023-05-18T06:53:28.669Z,103113.28
2023-05-18T06:55:55.458Z,103114.50
2023-05-18T06:58:22.934Z,103112.44
2023-05-18T07:00:49.730Z,103108.25
2023-05-18T07:03:16.602Z,103093.84
2023-05-18T07:05:43.482Z,103096.97
2023-05-18T07:08:10.298Z,103105.97
2023-05-18T07:10:38.362Z,103103.84
2023-05-18T07:13:05.111Z,103098.25
2023-05-18T07:15:33.300Z,103098.78
2023-05-18T07:18:00.412Z,103086.00
2023-05-18T07:20:30.156Z,103073.38
2023-05-18T07:22:56.907Z,103067.06
2023-05-18T07:25:23.896Z,103070.38
2023-05-18T07:27:54.613Z,103062.53
2023-05-18T07:30:22.766Z,103080.84
2023-05-18T07:32:51.357Z,103075.38
2023-05-18T07:35:22.100Z,103068.00
2023-05-18T07:37:50.271Z,103055.50
2023-05-18T07:40:16.975Z,103061.00
2023-05-18T07:42:44.120Z,103019.47
2023-05-18T07:45:11.511Z,103007.31
2023-05-18T07:47:38.659Z,103002.28
2023-05-18T07:50:06.556Z,103020.34
2023-05-18T07:52:33.356Z,103017.16
2023-05-18T07:55:01.110Z,103065.56
2023-05-18T07:57:30.624Z,103050.22
2023-05-18T07:59:57.346Z,103025.13
2023-05-18T08:02:24.804Z,103054.66
2023-05-18T08:04:52.018Z,103083.72
2023-05-18T08:07:18.914Z,103064.50
2023-05-18T08:09:45.623Z,103069.69
2023-05-18T08:12:12.347Z,103075.91
2023-05-18T08:14:39.037Z,103031.22
2023-05-18T08:17:06.549Z,103064.44
2023-05-18T08:19:33.390Z,103048.44
2023-05-18T08:22:00.126Z,102991.97
2023-05-18T08:24:26.839Z,102970.88
2023-05-18T08:26:53.645Z,103005.91
2023-05-18T08:29:20.777Z,103030.44
2023-05-18T08:31:49.298Z,103011.63
2023-05-18T08:34:16.700Z,103039.59
2023-05-18T08:36:45.707Z,103011.91
2023-05-18T08:39:12.979Z,103046.53
2023-05-18T08:42:06.193Z,103001.19
2023-05-18T08:44:43.734Z,103006.41
2023-05-18T08:47:13.741Z,103044.91
2023-05-18T08:49:42.721Z,103047.69
2023-05-18T08:52:10.345Z,103031.69
2023-05-18T08:54:37.920Z,103061.38
2023-05-18T08:57:11.880Z,103038.28
2023-05-18T08:59:43.446Z,103034.63
2023-05-18T09:02:10.288Z,103028.94
2023-05-18T09:04:38.310Z,103013.50
2023-05-18T09:07:06.768Z,103015.28
2023-05-18T09:09:34.294Z,103015.94
2023-05-18T09:12:01.905Z,102955.09
2023-05-18T09:14:30.988Z,103024.75
2023-05-18T09:16:57.780Z,103037.88
2023-05-18T09:19:25.080Z,102959.09
2023-05-18T09:21:52.925Z,102941.78
2023-05-18T09:24:23.737Z,102941.44
2023-05-18T09:26:51.711Z,103004.84
2023-05-18T09:29:21.021Z,103038.09
2023-05-18T09:31:48.984Z,103025.19
2023-05-18T09:34:16.470Z,103033.47
2023-05-18T09:36:49.437Z,103026.38
2023-05-18T09:39:16.122Z,103015.34
2023-05-18T09:41:42.770Z,103002.06
2023-05-18T09:44:10.994Z,103013.75
2023-05-18T09:46:39.004Z,103015.22
2023-05-18T09:49:06.935Z,103008.06
2023-05-18T09:51:37.948Z,102974.09
2023-05-18T09:54:07.145Z,103037.13
2023-05-18T09:56:37.902Z,103032.38
2023-05-18T09:59:15.698Z,103048.72
2023-05-18T10:02:02.394Z,103023.84
2023-05-18T10:04:37.179Z,102996.31
2023-05-18T10:07:10.413Z,103000.38
2023-05-18T10:09:37.367Z,103004.22
2023-05-18T10:12:12.961Z,103017.81
2023-05-18T10:14:44.665Z,103021.72
2023-05-18T10:17:17.235Z,102997.91
2023-05-18T10:19:45.546Z,102986.66
2023-05-18T10:22:16.624Z,103038.50
2023-05-18T10:24:46.269Z,103046.75
2023-05-18T10:27:14.819Z,103025.16
2023-05-18T10:29:42.145Z,103020.66
2023-05-18T10:32:12.944Z,103010.25
2023-05-18T10:34:41.867Z,103035.25
2023-05-18T10:37:11.933Z,103013.06
2023-05-18T10:39:45.565Z,103004.34
2023-05-18T10:42:14.574Z,103039.44
2023-05-18T10:44:41.479Z,103064.41
2023-05-18T10:47:08.988Z,103066.97
2023-05-18T10:49:36.595Z,103039.41
2023-05-18T10:52:03.941Z,103031.75
2023-05-18T10:54:30.830Z,103037.28
2023-05-18T10:56:57.732Z,103016.97
2023-05-18T10:59:24.774Z,103035.59
2023-05-18T11:01:56.123Z,103023.69
2023-05-18T11:04:25.236Z,102993.50
2023-05-18T11:07:15.633Z,103003.44
2023-05-18T11:09:43.811Z,103028.09
2023-05-18T11:12:15.030Z,103011.34
2023-05-18T11:14:50.472Z,102996.81
2023-05-18T11:17:22.344Z,102966.00
2023-05-18T11:20:04.876Z,103025.31
2023-05-18T11:22:52.757Z,103003.00
2023-05-18T11:25:25.703Z,102979.72
2023-05-18T11:27:53.253Z,103000.94
2023-05-18T11:30:50.340Z,102998.06
2023-05-18T11:33:26.952Z,103004.41
2023-05-18T11:36:15.394Z,103006.69
2023-05-18T11:39:08.534Z,102981.22
2023-05-18T11:41:39.200Z,103006.56
2023-05-18T11:44:12.472Z,103040.97
2023-05-18T11:46:55.492Z,103018.59
2023-05-18T11:49:36.465Z,103038.56
2023-05-18T11:52:03.408Z,103006.97
2023-05-18T11:54:52.422Z,102999.88
2023-05-18T11:57:45.481Z,103029.00
2023-05-18T12:00:13.067Z,103025.38
2023-05-18T12:02:45.118Z,103028.59
2023-05-18T12:05:12.785Z,103035.53
2023-05-18T12:07:40.996Z,103030.50
2023-05-18T12:10:10.400Z,103020.25
2023-05-18T12:12:37.861Z,102983.22
2023-05-18T12:15:06.491Z,103003.22
2023-05-18T12:17:47.124Z,103029.94
2023-05-18T12:20:17.981Z,102996.13
2023-05-18T12:22:46.424Z,102970.38
2023-05-18T12:25:13.639Z,102960.22
2023-05-18T12:27:42.005Z,102969.97
2023-05-18T12:30:16.547Z,102988.44
2023-05-18T12:32:57.081Z,102959.09
2023-05-18T12:35:25.125Z,102925.56
2023-05-18T12:37:52.722Z,102971.41
2023-05-18T12:40:20.540Z,102949.88
2023-05-18T12:42:56.683Z,102992.34
2023-05-18T12:45:25.890Z,102981.44
2023-05-18T12:47:54.767Z,102947.88
2023-05-18T12:50:23.809Z,102944.16
2023-05-18T12:52:52.298Z,102964.94
2023-05-18T12:55:23.253Z,102945.94
2023-05-18T12:58:20.958Z,102937.03
2023-05-18T13:00:48.916Z,102936.19
2023-05-18T13:03:24.302Z,102940.28
2023-05-18T13:06:07.890Z,102953.91
2023-05-18T13:08:35.779Z,102951.25
2023-05-18T13:11:13.805Z,102996.34
2023-05-18T13:14:04.652Z,102929.75
2023-05-18T13:16:33.728Z,102924.03
2023-05-18T13:19:02.625Z,102912.44
2023-05-18T13:21:29.584Z,102945.66
2023-05-18T13:23:56.308Z,102929.19
2023-05-18T13:26:24.163Z,102919.94
2023-05-18T13:28:53.266Z,102919.53
2023-05-18T13:31:20.876Z,102935.06
2023-05-18T13:33:48.722Z,102895.81
2023-05-18T13:36:16.251Z,102922.16
2023-05-18T13:38:43.213Z,102916.59
2023-05-18T13:41:17.271Z,102925.44
2023-05-18T13:43:44.028Z,102941.84
2023-05-18T13:46:10.851Z,102957.41
2023-05-18T13:48:37.759Z,102928.94
2023-05-18T13:51:04.752Z,102896.31
2023-05-18T13:53:31.653Z,102885.88
2023-05-18T13:55:58.472Z,102930.44
2023-05-18T13:58:25.655Z,102939.94
2023-05-18T14:00:53.895Z,102916.00
2023-05-18T14:03:20.923Z,102922.94
2023-05-18T14:05:47.816Z,102900.16
2023-05-18T14:08:14.634Z,102894.97
2023-05-18T14:10:41.656Z,102916.22
2023-05-18T14:13:09.298Z,102923.34
2023-05-18T14:15:36.049Z,102911.56
2023-05-18T14:18:02.830Z,102917.59
2023-05-18T14:20:30.548Z,102895.50
2023-05-18T14:22:57.603Z,102896.16
2023-05-18T14:25:24.331Z,102920.00
2023-05-18T14:27:53.252Z,102942.75
2023-05-18T14:30:20.061Z,102912.28
2023-05-18T14:32:46.869Z,102938.31
2023-05-18T14:35:13.724Z,102928.69
2023-05-18T14:37:40.879Z,102983.63
2023-05-18T14:40:08.475Z,102970.75
2023-05-18T14:42:36.558Z,102965.22
2023-05-18T14:45:03.523Z,102975.22
2023-05-18T14:47:30.308Z,102991.03
2023-05-18T14:49:57.186Z,102975.91
2023-05-18T14:52:24.162Z,102981.44
2023-05-18T14:54:50.836Z,102991.75
2023-05-18T14:57:17.523Z,102983.50
2023-05-18T14:59:44.237Z,102956.19
2023-05-18T15:02:10.964Z,102987.03
2023-05-18T15:04:37.819Z,102986.75
2023-05-18T15:07:05.726Z,102999.84
2023-05-18T15:09:32.558Z,102980.97
2023-05-18T15:11:59.341Z,102945.34
2023-05-18T15:14:26.060Z,102998.03
2023-05-18T15:16:52.698Z,103003.88
2023-05-18T15:19:19.438Z,103018.44
2023-05-18T15:21:46.382Z,102988.09
2023-05-18T15:24:13.280Z,103023.41
2023-05-18T15:26:40.353Z,103018.66
2023-05-18T15:29:07.058Z,103007.72
2023-05-18T15:31:34.157Z,103008.63
2023-05-18T15:34:01.027Z,103022.91
2023-05-18T15:36:28.030Z,103045.41
2023-05-18T15:38:55.014Z,103046.09
2023-05-18T15:41:22.133Z,103029.78
2023-05-18T15:43:48.897Z,103037.53
2023-05-18T15:46:18.012Z,103026.91
2023-05-18T15:48:44.831Z,103032.88
2023-05-18T15:51:11.574Z,103028.31
2023-05-18T15:53:38.380Z,103047.38
2023-05-18T15:56:05.776Z,103043.72
2023-05-18T15:58:33.270Z,103036.09
2023-05-18T16:01:00.125Z,103039.25
2023-05-18T16:03:26.884Z,103041.00
2023-05-18T16:05:53.658Z,103023.03
2023-05-18T16:08:20.755Z,103018.69
2023-05-18T16:10:47.452Z,103028.41
2023-05-18T16:13:14.810Z,103027.78
2023-05-18T16:15:41.665Z,103033.38
2023-05-18T16:18:08.491Z,103021.50
2023-05-18T16:20:35.392Z,103017.72
2023-05-18T16:23:02.225Z,102992.09
2023-05-18T16:25:29.141Z,103000.66
2023-05-18T16:27:56.454Z,102988.59
2023-05-18T16:30:23.357Z,102995.75
2023-05-18T16:32:50.075Z,103003.81
2023-05-18T16:35:16.899Z,103012.63
2023-05-18T16:37:43.637Z,103012.31
2023-05-18T16:40:10.777Z,103019.00
2023-05-18T16:42:37.552Z,103032.69
2023-05-18T16:45:04.879Z,103021.13
2023-05-18T16:47:34.548Z,103017.59
2023-05-18T16:50:01.653Z,103019.72
2023-05-18T16:52:28.460Z,103015.03
2023-05-18T16:54:55.208Z,103024.91
2023-05-18T16:57:22.244Z,103004.63
2023-05-18T16:59:49.183Z,103005.50
2023-05-18T17:02:17.421Z,103010.34
2023-05-18T17:04:49.589Z,103015.13
2023-05-18T17:07:16.604Z,103013.59
2023-05-18T17:09:43.513Z,103010.69
2023-05-18T17:12:11.249Z,102996.81
2023-05-18T17:14:38.548Z,102979.50
2023-05-18T17:17:05.810Z,102968.31
2023-05-18T17:19:34.752Z,102953.66
2023-05-18T17:22:01.685Z,102952.63
2023-05-18T17:24:28.511Z,102916.69
2023-05-18T17:26:55.327Z,102929.50
2023-05-18T17:29:22.125Z,102949.97
2023-05-18T17:31:49.171Z,102953.91
2023-05-18T17:34:16.061Z,102979.91
2023-05-18T17:36:42.751Z,102991.25
2023-05-18T17:39:09.567Z,102999.78
2023-05-18T17:41:37.008Z,103017.50
2023-05-18T17:44:03.837Z,103011.38
2023-05-18T17:46:30.732Z,103023.22
2023-05-18T17:48:57.563Z,103031.47
2023-05-18T17:51:24.707Z,103037.75
2023-05-18T17:53:51.639Z,103041.72
2023-05-18T17:56:18.524Z,103034.31
2023-05-18T17:58:48.885Z,103041.19
2023-05-18T18:01:15.581Z,103051.16
2023-05-18T18:03:42.838Z,103053.25
2023-05-18T18:06:09.620Z,103061.19
2023-05-18T18:08:36.819Z,103062.97
2023-05-18T18:11:03.823Z,103053.97
2023-05-18T18:13:33.164Z,103045.69
2023-05-18T18:16:00.100Z,103060.00
2023-05-18T18:18:26.840Z,103053.81
2023-05-18T18:20:53.537Z,103051.06
2023-05-18T18:23:20.999Z,103053.00
2023-05-18T18:25:47.796Z,103060.72
2023-05-18T18:28:15.374Z,103058.16
2023-05-18T18:30:44.562Z,103062.56
2023-05-18T18:33:11.939Z,103064.31
2023-05-18T18:35:38.986Z,103045.53
2023-05-18T18:38:05.865Z,103053.56
2023-05-18T18:40:34.506Z,103058.38
2023-05-18T18:43:01.437Z,103058.63
2023-05-18T18:45:30.044Z,103066.66
2023-05-18T18:47:56.815Z,103070.53
2023-05-18T18:50:23.886Z,103065.38
2023-05-18T18:52:50.578Z,103058.13
2023-05-18T18:55:17.830Z,103073.47
2023-05-18T18:57:44.724Z,103080.47
2023-05-18T19:00:12.193Z,103078.94
2023-05-18T19:02:39.342Z,103082.53
2023-05-18T19:05:07.444Z,103075.13
2023-05-18T19:07:35.091Z,103090.34
2023-05-18T19:10:05.095Z,103097.94
2023-05-18T19:12:33.157Z,103109.38
2023-05-18T19:14:59.914Z,103098.88
2023-05-18T19:17:26.978Z,103101.44
2023-05-18T19:19:53.746Z,103099.88
2023-05-18T19:22:20.510Z,103105.34
2023-05-18T19:24:47.229Z,103106.88
2023-05-18T19:27:14.399Z,103093.91
2023-05-18T19:29:43.074Z,103101.88
2023-05-18T19:32:09.843Z,103103.50
2023-05-18T19:34:36.602Z,103101.25
2023-05-18T19:37:03.904Z,103106.25
2023-05-18T19:39:30.648Z,103108.56
2023-05-18T19:41:57.515Z,103110.81
2023-05-18T19:44:24.251Z,103107.84
2023-05-18T19:46:50.988Z,103112.75
2023-05-18T19:49:17.743Z,103113.81
2023-05-18T19:51:45.485Z,103124.16
2023-05-18T19:54:12.534Z,103126.28
2023-05-18T19:56:39.292Z,103120.34
2023-05-18T19:59:06.129Z,103112.34
2023-05-18T20:01:33.822Z,103114.53
2023-05-18T20:04:03.356Z,103109.13
2023-05-18T20:06:31.876Z,103118.44
2023-05-18T20:08:58.752Z,103127.72
2023-05-18T20:11:25.952Z,103123.03
2023-05-18T20:13:53.866Z,103126.59
2023-05-18T20:16:20.685Z,103134.22
2023-05-18T20:18:47.529Z,103137.06
2023-05-18T20:21:14.551Z,103131.19
2023-05-18T20:23:41.632Z,103130.75
2023-05-18T20:26:08.342Z,103134.41
2023-05-18T20:28:35.510Z,103143.78
2023-05-18T20:31:02.288Z,103140.22
2023-05-18T20:33:30.231Z,103148.34
2023-05-18T20:35:57.183Z,103154.66
2023-05-18T20:38:25.767Z,103150.16
2023-05-18T20:40:53.946Z,103146.69
2023-05-18T20:43:21.329Z,103152.47
2023-05-18T20:45:49.464Z,103154.63
2023-05-18T20:48:24.438Z,103154.66
2023-05-18T20:50:52.336Z,103158.28
2023-05-18T20:53:19.493Z,103160.06
2023-05-18T20:55:47.672Z,103150.34
2023-05-18T20:58:18.544Z,103162.97
2023-05-18T21:00:48.038Z,103165.94
2023-05-18T21:03:15.331Z,103161.63
2023-05-18T21:05:43.457Z,103167.88
2023-05-18T21:08:10.430Z,103166.16
2023-05-18T21:10:37.567Z,103174.31
2023-05-18T21:13:04.592Z,103170.78
2023-05-18T21:15:38.682Z,103172.72
2023-05-18T21:18:05.441Z,103176.34
2023-05-18T21:20:32.503Z,103174.00
2023-05-18T21:22:59.601Z,103175.47
2023-05-18T21:25:26.571Z,103178.28
2023-05-18T21:27:53.370Z,103178.97
2023-05-18T21:30:20.096Z,103179.13
2023-05-18T21:32:48.243Z,103179.97
2023-05-18T21:35:15.729Z,103180.00
2023-05-18T21:37:44.742Z,103187.31
2023-05-18T21:40:11.556Z,103191.81
2023-05-18T21:42:44.773Z,103186.59
2023-05-18T21:45:12.635Z,103176.44
2023-05-18T21:47:39.513Z,103182.81
2023-05-18T21:50:06.910Z,103183.75
2023-05-18T21:52:35.305Z,103191.84
2023-05-18T21:55:02.134Z,103186.41
2023-05-18T21:57:28.871Z,103193.66
2023-05-18T21:59:55.618Z,103186.72
2023-05-18T22:02:22.763Z,103185.06
2023-05-18T22:04:49.644Z,103184.44
2023-05-18T22:07:16.362Z,103199.88
2023-05-18T22:09:43.136Z,103196.94
2023-05-18T22:12:09.872Z,103205.19
2023-05-18T22:14:36.586Z,103203.69
2023-05-18T22:17:05.088Z,103199.34
2023-05-18T22:19:31.906Z,103195.59
2023-05-18T22:21:58.673Z,103195.75
2023-05-18T22:24:25.509Z,103197.53
2023-05-18T22:26:52.228Z,103202.78
2023-05-18T22:29:19.267Z,103193.16
2023-05-18T22:31:45.994Z,103202.13
2023-05-18T22:34:12.695Z,103200.69
2023-05-18T22:36:39.456Z,103202.72
2023-05-18T22:39:09.058Z,103204.69
2023-05-18T22:41:35.740Z,103209.44
2023-05-18T22:44:02.668Z,103203.97
2023-05-18T22:46:29.480Z,103195.78
2023-05-18T22:48:58.365Z,103196.72
2023-05-18T22:51:26.354Z,103196.53
2023-05-18T22:53:53.077Z,103201.78
2023-05-18T22:56:23.205Z,103202.66
2023-05-18T22:58:49.956Z,103194.69
2023-05-18T23:01:17.006Z,103196.78
2023-05-18T23:03:43.741Z,103197.94
2023-05-18T23:06:10.593Z,103192.84
2023-05-18T23:08:37.276Z,103191.97
2023-05-18T23:11:05.815Z,103183.09
2023-05-18T23:13:33.213Z,103195.03
2023-05-18T23:16:01.049Z,103194.91
2023-05-18T23:18:28.281Z,103189.56
2023-05-18T23:20:55.809Z,103193.09
2023-05-18T23:23:28.328Z,103201.34
2023-05-18T23:25:55.079Z,103199.56
2023-05-18T23:28:24.677Z,103191.34
2023-05-18T23:30:51.406Z,103201.50
2023-05-18T23:33:18.389Z,103190.31
2023-05-18T23:35:50.036Z,103192.09
2023-05-18T23:38:21.891Z,103200.25
2023-05-18T23:40:50.500Z,103201.25
2023-05-18T23:43:17.584Z,103194.94
2023-05-18T23:45:44.552Z,103192.22
2023-05-18T23:48:11.845Z,103194.03
2023-05-18T23:50:41.375Z,103199.44
2023-05-18T23:53:10.020Z,103197.88
2023-05-18T23:55:40.067Z,103202.41
2023-05-18T23:58:07.412Z,103193.25
